sensor_id;sensor_type;location;lat;lon;timestamp;P1;durP1;ratioP1;P2;durP2;ratioP2
54983;SDS011;40884;53.562;9.940;2022-10-26T00:00:30;11.77;;;7.43;;
54983;SDS011;40884;53.562;9.940;2022-10-26T00:01:30;12.23;;;7.03;;
54983;SDS011;40884;53.562;9.940;2022-10-26T00:02:30;10.90;;;7.47;;
54983;SDS011;40884;53.562;9.940;2022-10-26T00:03:30;11.37;;;7.50;;
54983;SDS011;40884;53.562;9.940;2022-10-26T00:04:30;11.60;;;7.87;;
54983;SDS011;40884;53.562;9.940;2022-10-26T00:05:31;10.70;;;7.53;;
54983;SDS011;40884;53.562;9.940;2022-10-26T00:06:32;11.93;;;7.57;;
54983;SDS011;40884;53.562;9.940;2022-10-26T00:07:32;12.47;;;7.60;;
54983;SDS011;40884;53.562;9.940;2022-10-26T00:08:32;11.40;;;7.40;;
54983;SDS011;40884;53.562;9.940;2022-10-26T00:09:32;10.73;;;7.30;;
54983;SDS011;40884;53.562;9.940;2022-10-26T00:10:33;10.07;;;6.97;;
54983;SDS011;40884;53.562;9.940;2022-10-26T00:11:33;9.13;;;7.27;;
54983;SDS011;40884;53.562;9.940;2022-10-26T00:12:33;12.90;;;7.63;;
54983;SDS011;40884;53.562;9.940;2022-10-26T00:13:34;8.87;;;7.43;;
54983;SDS011;40884;53.562;9.940;2022-10-26T00:14:34;9.67;;;6.90;;
54983;SDS011;40884;53.562;9.940;2022-10-26T00:15:34;9.63;;;7.57;;
54983;SDS011;40884;53.562;9.940;2022-10-26T00:16:38;11.23;;;6.87;;
54983;SDS011;40884;53.562;9.940;2022-10-26T00:17:38;9.77;;;7.70;;
54983;SDS011;40884;53.562;9.940;2022-10-26T00:18:38;10.30;;;7.10;;
54983;SDS011;40884;53.562;9.940;2022-10-26T00:19:38;15.03;;;7.67;;
54983;SDS011;40884;53.562;9.940;2022-10-26T00:20:38;9.57;;;7.33;;
54983;SDS011;40884;53.562;9.940;2022-10-26T00:21:38;14.03;;;8.67;;
54983;SDS011;40884;53.562;9.940;2022-10-26T00:22:39;10.93;;;7.23;;
54983;SDS011;40884;53.562;9.940;2022-10-26T00:23:39;8.33;;;6.80;;
54983;SDS011;40884;53.562;9.940;2022-10-26T00:24:39;11.60;;;7.80;;
54983;SDS011;40884;53.562;9.940;2022-10-26T00:25:39;12.80;;;7.80;;
54983;SDS011;40884;53.562;9.940;2022-10-26T00:26:39;10.93;;;7.43;;
54983;SDS011;40884;53.562;9.940;2022-10-26T00:27:39;12.07;;;7.33;;
54983;SDS011;40884;53.562;9.940;2022-10-26T00:28:40;10.73;;;7.60;;
54983;SDS011;40884;53.562;9.940;2022-10-26T00:29:40;11.60;;;6.80;;
54983;SDS011;40884;53.562;9.940;2022-10-26T00:30:40;12.37;;;7.43;;
54983;SDS011;40884;53.562;9.940;2022-10-26T00:31:40;12.30;;;7.43;;
54983;SDS011;40884;53.562;9.940;2022-10-26T00:32:40;11.80;;;7.40;;
54983;SDS011;40884;53.562;9.940;2022-10-26T00:33:40;12.03;;;8.00;;
54983;SDS011;40884;53.562;9.940;2022-10-26T00:34:41;11.57;;;7.03;;
54983;SDS011;40884;53.562;9.940;2022-10-26T00:35:41;10.83;;;7.33;;
54983;SDS011;40884;53.562;9.940;2022-10-26T00:36:41;13.20;;;7.37;;
54983;SDS011;40884;53.562;9.940;2022-10-26T00:37:41;8.50;;;6.93;;
54983;SDS011;40884;53.562;9.940;2022-10-26T00:38:41;9.80;;;7.23;;
54983;SDS011;40884;53.562;9.940;2022-10-26T00:39:41;11.20;;;7.53;;
54983;SDS011;40884;53.562;9.940;2022-10-26T00:40:42;12.33;;;7.60;;
54983;SDS011;40884;53.562;9.940;2022-10-26T00:41:42;10.33;;;8.07;;
54983;SDS011;40884;53.562;9.940;2022-10-26T00:42:42;11.07;;;7.23;;
54983;SDS011;40884;53.562;9.940;2022-10-26T00:43:42;11.73;;;7.60;;
54983;SDS011;40884;53.562;9.940;2022-10-26T00:45:45;12.37;;;7.30;;
54983;SDS011;40884;53.562;9.940;2022-10-26T00:46:46;12.13;;;7.00;;
54983;SDS011;40884;53.562;9.940;2022-10-26T00:47:47;10.57;;;7.40;;
54983;SDS011;40884;53.562;9.940;2022-10-26T00:48:50;11.57;;;7.60;;
54983;SDS011;40884;53.562;9.940;2022-10-26T00:49:51;9.67;;;7.40;;
54983;SDS011;40884;53.562;9.940;2022-10-26T00:50:53;11.40;;;6.93;;
54983;SDS011;40884;53.562;9.940;2022-10-26T00:51:54;13.23;;;7.73;;
54983;SDS011;40884;53.562;9.940;2022-10-26T00:52:54;10.17;;;7.20;;
54983;SDS011;40884;53.562;9.940;2022-10-26T00:53:56;14.27;;;8.60;;
54983;SDS011;40884;53.562;9.940;2022-10-26T00:54:56;12.93;;;8.03;;
54983;SDS011;40884;53.562;9.940;2022-10-26T00:55:56;11.93;;;7.50;;
54983;SDS011;40884;53.562;9.940;2022-10-26T00:56:56;10.67;;;7.10;;
54983;SDS011;40884;53.562;9.940;2022-10-26T00:57:57;10.60;;;7.30;;
54983;SDS011;40884;53.562;9.940;2022-10-26T00:58:59;9.83;;;6.73;;
54983;SDS011;40884;53.562;9.940;2022-10-26T01:00:00;10.20;;;7.33;;
54983;SDS011;40884;53.562;9.940;2022-10-26T01:01:00;12.03;;;8.10;;
54983;SDS011;40884;53.562;9.940;2022-10-26T01:02:00;11.63;;;7.73;;
54983;SDS011;40884;53.562;9.940;2022-10-26T01:03:03;11.97;;;8.23;;
54983;SDS011;40884;53.562;9.940;2022-10-26T01:04:04;12.27;;;7.40;;
54983;SDS011;40884;53.562;9.940;2022-10-26T01:05:04;17.33;;;8.03;;
54983;SDS011;40884;53.562;9.940;2022-10-26T01:06:05;13.63;;;7.40;;
54983;SDS011;40884;53.562;9.940;2022-10-26T01:07:05;10.20;;;7.47;;
54983;SDS011;40884;53.562;9.940;2022-10-26T01:08:06;10.97;;;7.37;;
54983;SDS011;40884;53.562;9.940;2022-10-26T01:09:07;13.13;;;7.50;;
54983;SDS011;40884;53.562;9.940;2022-10-26T01:10:08;12.43;;;7.50;;
54983;SDS011;40884;53.562;9.940;2022-10-26T01:11:08;11.73;;;8.30;;
54983;SDS011;40884;53.562;9.940;2022-10-26T01:12:08;11.63;;;7.53;;
54983;SDS011;40884;53.562;9.940;2022-10-26T01:13:09;11.17;;;7.57;;
54983;SDS011;40884;53.562;9.940;2022-10-26T01:14:09;11.20;;;8.40;;
54983;SDS011;40884;53.562;9.940;2022-10-26T01:15:11;11.00;;;7.00;;
54983;SDS011;40884;53.562;9.940;2022-10-26T01:18:59;12.03;;;7.50;;
54983;SDS011;40884;53.562;9.940;2022-10-26T01:21:19;12.53;;;7.63;;
54983;SDS011;40884;53.562;9.940;2022-10-26T01:24:45;10.73;;;8.10;;
54983;SDS011;40884;53.562;9.940;2022-10-26T01:28:12;13.73;;;7.70;;
54983;SDS011;40884;53.562;9.940;2022-10-26T01:29:33;10.63;;;7.70;;
54983;SDS011;40884;53.562;9.940;2022-10-26T01:30:42;10.50;;;7.97;;
54983;SDS011;40884;53.562;9.940;2022-10-26T01:34:33;11.40;;;8.10;;
54983;SDS011;40884;53.562;9.940;2022-10-26T01:36:56;10.27;;;7.97;;
54983;SDS011;40884;53.562;9.940;2022-10-26T01:38:03;11.20;;;7.43;;
54983;SDS011;40884;53.562;9.940;2022-10-26T01:40:16;12.33;;;8.37;;
54983;SDS011;40884;53.562;9.940;2022-10-26T01:42:24;12.70;;;7.87;;
54983;SDS011;40884;53.562;9.940;2022-10-26T01:43:25;10.93;;;7.70;;
54983;SDS011;40884;53.562;9.940;2022-10-26T01:44:31;11.53;;;7.30;;
54983;SDS011;40884;53.562;9.940;2022-10-26T01:45:33;8.63;;;7.47;;
54983;SDS011;40884;53.562;9.940;2022-10-26T01:46:37;10.87;;;7.83;;
54983;SDS011;40884;53.562;9.940;2022-10-26T01:47:38;9.43;;;7.17;;
54983;SDS011;40884;53.562;9.940;2022-10-26T01:48:39;10.70;;;7.93;;
54983;SDS011;40884;53.562;9.940;2022-10-26T01:49:41;10.40;;;7.97;;
54983;SDS011;40884;53.562;9.940;2022-10-26T01:50:43;8.37;;;7.47;;
54983;SDS011;40884;53.562;9.940;2022-10-26T01:51:44;12.57;;;8.07;;
54983;SDS011;40884;53.562;9.940;2022-10-26T01:52:49;11.73;;;7.67;;
54983;SDS011;40884;53.562;9.940;2022-10-26T01:53:49;11.43;;;7.73;;
54983;SDS011;40884;53.562;9.940;2022-10-26T01:54:49;12.13;;;8.17;;
54983;SDS011;40884;53.562;9.940;2022-10-26T01:55:53;11.50;;;7.70;;
54983;SDS011;40884;53.562;9.940;2022-10-26T01:56:58;11.03;;;8.17;;
54983;SDS011;40884;53.562;9.940;2022-10-26T01:58:02;11.63;;;8.90;;
54983;SDS011;40884;53.562;9.940;2022-10-26T01:59:17;11.37;;;7.73;;
54983;SDS011;40884;53.562;9.940;2022-10-26T02:00:19;11.07;;;8.20;;
54983;SDS011;40884;53.562;9.940;2022-10-26T02:01:32;13.20;;;7.80;;
54983;SDS011;40884;53.562;9.940;2022-10-26T02:02:37;15.07;;;8.23;;
54983;SDS011;40884;53.562;9.940;2022-10-26T02:04:54;11.47;;;7.77;;
54983;SDS011;40884;53.562;9.940;2022-10-26T02:05:59;14.60;;;8.33;;
54983;SDS011;40884;53.562;9.940;2022-10-26T02:07:10;10.97;;;8.67;;
54983;SDS011;40884;53.562;9.940;2022-10-26T02:08:48;13.47;;;8.50;;
54983;SDS011;40884;53.562;9.940;2022-10-26T02:12:04;8.83;;;6.97;;
54983;SDS011;40884;53.562;9.940;2022-10-26T02:13:15;11.33;;;7.87;;
54983;SDS011;40884;53.562;9.940;2022-10-26T02:15:35;11.00;;;7.63;;
54983;SDS011;40884;53.562;9.940;2022-10-26T02:16:50;11.80;;;8.00;;
54983;SDS011;40884;53.562;9.940;2022-10-26T02:17:58;10.60;;;7.33;;
54983;SDS011;40884;53.562;9.940;2022-10-26T02:19:00;11.67;;;7.60;;
54983;SDS011;40884;53.562;9.940;2022-10-26T02:20:02;10.00;;;7.37;;
54983;SDS011;40884;53.562;9.940;2022-10-26T02:21:04;10.93;;;8.20;;
54983;SDS011;40884;53.562;9.940;2022-10-26T02:22:08;10.63;;;7.73;;
54983;SDS011;40884;53.562;9.940;2022-10-26T02:23:10;11.03;;;7.73;;
54983;SDS011;40884;53.562;9.940;2022-10-26T02:24:11;12.50;;;8.87;;
54983;SDS011;40884;53.562;9.940;2022-10-26T02:25:16;12.40;;;8.00;;
54983;SDS011;40884;53.562;9.940;2022-10-26T02:26:19;13.63;;;7.80;;
54983;SDS011;40884;53.562;9.940;2022-10-26T02:27:21;10.53;;;8.43;;
54983;SDS011;40884;53.562;9.940;2022-10-26T02:28:24;12.87;;;7.57;;
54983;SDS011;40884;53.562;9.940;2022-10-26T02:29:26;8.47;;;7.40;;
54983;SDS011;40884;53.562;9.940;2022-10-26T02:30:27;11.70;;;7.93;;
54983;SDS011;40884;53.562;9.940;2022-10-26T02:31:28;12.63;;;8.07;;
54983;SDS011;40884;53.562;9.940;2022-10-26T02:32:31;9.53;;;7.07;;
54983;SDS011;40884;53.562;9.940;2022-10-26T02:33:34;11.17;;;7.50;;
54983;SDS011;40884;53.562;9.940;2022-10-26T02:34:35;11.20;;;7.10;;
54983;SDS011;40884;53.562;9.940;2022-10-26T02:35:36;9.13;;;7.70;;
54983;SDS011;40884;53.562;9.940;2022-10-26T02:36:38;11.73;;;7.93;;
54983;SDS011;40884;53.562;9.940;2022-10-26T02:37:39;10.50;;;7.80;;
54983;SDS011;40884;53.562;9.940;2022-10-26T02:38:41;11.93;;;8.07;;
54983;SDS011;40884;53.562;9.940;2022-10-26T02:39:41;13.30;;;8.40;;
54983;SDS011;40884;53.562;9.940;2022-10-26T02:40:42;10.47;;;7.83;;
54983;SDS011;40884;53.562;9.940;2022-10-26T02:41:42;11.60;;;7.60;;
54983;SDS011;40884;53.562;9.940;2022-10-26T02:42:44;9.93;;;8.10;;
54983;SDS011;40884;53.562;9.940;2022-10-26T02:43:46;12.37;;;8.53;;
54983;SDS011;40884;53.562;9.940;2022-10-26T02:44:53;11.87;;;8.33;;
54983;SDS011;40884;53.562;9.940;2022-10-26T02:46:06;14.27;;;8.10;;
54983;SDS011;40884;53.562;9.940;2022-10-26T02:47:07;12.03;;;8.07;;
54983;SDS011;40884;53.562;9.940;2022-10-26T02:48:07;11.90;;;7.87;;
54983;SDS011;40884;53.562;9.940;2022-10-26T02:49:08;10.43;;;7.77;;
54983;SDS011;40884;53.562;9.940;2022-10-26T02:50:08;12.10;;;8.23;;
54983;SDS011;40884;53.562;9.940;2022-10-26T02:51:10;15.20;;;8.33;;
54983;SDS011;40884;53.562;9.940;2022-10-26T02:54:25;12.37;;;8.00;;
54983;SDS011;40884;53.562;9.940;2022-10-26T02:55:28;11.50;;;7.87;;
54983;SDS011;40884;53.562;9.940;2022-10-26T02:56:31;9.37;;;7.60;;
54983;SDS011;40884;53.562;9.940;2022-10-26T02:58:36;14.03;;;7.90;;
54983;SDS011;40884;53.562;9.940;2022-10-26T02:59:38;10.77;;;8.27;;
54983;SDS011;40884;53.562;9.940;2022-10-26T03:00:41;12.40;;;8.23;;
54983;SDS011;40884;53.562;9.940;2022-10-26T03:01:41;13.27;;;8.47;;
54983;SDS011;40884;53.562;9.940;2022-10-26T03:02:43;14.23;;;8.67;;
54983;SDS011;40884;53.562;9.940;2022-10-26T03:03:44;11.40;;;8.30;;
54983;SDS011;40884;53.562;9.940;2022-10-26T03:04:44;12.43;;;8.03;;
54983;SDS011;40884;53.562;9.940;2022-10-26T03:05:44;10.13;;;8.00;;
54983;SDS011;40884;53.562;9.940;2022-10-26T03:06:51;13.00;;;8.33;;
54983;SDS011;40884;53.562;9.940;2022-10-26T03:07:51;13.07;;;8.20;;
54983;SDS011;40884;53.562;9.940;2022-10-26T03:08:51;12.43;;;9.47;;
54983;SDS011;40884;53.562;9.940;2022-10-26T03:09:52;10.97;;;8.67;;
54983;SDS011;40884;53.562;9.940;2022-10-26T03:10:52;14.10;;;9.10;;
54983;SDS011;40884;53.562;9.940;2022-10-26T03:11:52;12.43;;;9.27;;
54983;SDS011;40884;53.562;9.940;2022-10-26T03:12:52;11.40;;;8.67;;
54983;SDS011;40884;53.562;9.940;2022-10-26T03:13:53;12.53;;;9.07;;
54983;SDS011;40884;53.562;9.940;2022-10-26T03:14:53;13.10;;;8.90;;
54983;SDS011;40884;53.562;9.940;2022-10-26T03:15:56;13.77;;;8.83;;
54983;SDS011;40884;53.562;9.940;2022-10-26T03:16:56;14.30;;;9.20;;
54983;SDS011;40884;53.562;9.940;2022-10-26T03:17:56;12.67;;;8.60;;
54983;SDS011;40884;53.562;9.940;2022-10-26T03:18:56;12.30;;;8.57;;
54983;SDS011;40884;53.562;9.940;2022-10-26T03:19:56;12.30;;;8.73;;
54983;SDS011;40884;53.562;9.940;2022-10-26T03:20:56;11.00;;;8.27;;
54983;SDS011;40884;53.562;9.940;2022-10-26T03:21:56;11.57;;;8.53;;
54983;SDS011;40884;53.562;9.940;2022-10-26T03:22:57;14.10;;;8.93;;
54983;SDS011;40884;53.562;9.940;2022-10-26T03:23:57;13.23;;;8.03;;
54983;SDS011;40884;53.562;9.940;2022-10-26T03:24:57;12.77;;;8.50;;
54983;SDS011;40884;53.562;9.940;2022-10-26T03:25:57;14.60;;;9.07;;
54983;SDS011;40884;53.562;9.940;2022-10-26T03:26:57;13.67;;;8.63;;
54983;SDS011;40884;53.562;9.940;2022-10-26T03:27:58;11.70;;;9.03;;
54983;SDS011;40884;53.562;9.940;2022-10-26T03:28:59;11.13;;;8.20;;
54983;SDS011;40884;53.562;9.940;2022-10-26T03:29:59;13.60;;;8.50;;
54983;SDS011;40884;53.562;9.940;2022-10-26T03:30:59;13.50;;;8.33;;
54983;SDS011;40884;53.562;9.940;2022-10-26T03:31:59;10.93;;;8.40;;
54983;SDS011;40884;53.562;9.940;2022-10-26T03:32:59;12.17;;;8.33;;
54983;SDS011;40884;53.562;9.940;2022-10-26T03:33:59;11.13;;;8.00;;
54983;SDS011;40884;53.562;9.940;2022-10-26T03:35:00;11.33;;;8.30;;
54983;SDS011;40884;53.562;9.940;2022-10-26T03:36:00;11.53;;;8.47;;
54983;SDS011;40884;53.562;9.940;2022-10-26T03:37:00;16.23;;;8.50;;
54983;SDS011;40884;53.562;9.940;2022-10-26T03:38:00;12.90;;;8.33;;
54983;SDS011;40884;53.562;9.940;2022-10-26T03:39:00;13.83;;;9.37;;
54983;SDS011;40884;53.562;9.940;2022-10-26T03:40:00;13.87;;;8.47;;
54983;SDS011;40884;53.562;9.940;2022-10-26T03:41:00;13.53;;;9.27;;
54983;SDS011;40884;53.562;9.940;2022-10-26T03:42:01;13.27;;;8.73;;
54983;SDS011;40884;53.562;9.940;2022-10-26T03:43:01;11.20;;;7.63;;
54983;SDS011;40884;53.562;9.940;2022-10-26T03:44:01;12.23;;;9.73;;
54983;SDS011;40884;53.562;9.940;2022-10-26T03:45:02;13.90;;;8.67;;
54983;SDS011;40884;53.562;9.940;2022-10-26T03:46:03;12.17;;;8.37;;
54983;SDS011;40884;53.562;9.940;2022-10-26T03:47:03;11.37;;;8.47;;
54983;SDS011;40884;53.562;9.940;2022-10-26T03:48:03;17.23;;;9.17;;
54983;SDS011;40884;53.562;9.940;2022-10-26T03:49:03;14.03;;;9.17;;
54983;SDS011;40884;53.562;9.940;2022-10-26T03:50:03;15.00;;;9.30;;
54983;SDS011;40884;53.562;9.940;2022-10-26T03:51:04;11.03;;;9.23;;
54983;SDS011;40884;53.562;9.940;2022-10-26T03:52:04;12.23;;;9.80;;
54983;SDS011;40884;53.562;9.940;2022-10-26T03:53:04;16.10;;;9.73;;
54983;SDS011;40884;53.562;9.940;2022-10-26T03:54:04;12.67;;;9.63;;
54983;SDS011;40884;53.562;9.940;2022-10-26T03:55:04;13.20;;;9.40;;
54983;SDS011;40884;53.562;9.940;2022-10-26T03:56:05;12.00;;;8.90;;
54983;SDS011;40884;53.562;9.940;2022-10-26T03:57:05;13.30;;;9.53;;
54983;SDS011;40884;53.562;9.940;2022-10-26T03:58:05;16.50;;;10.73;;
54983;SDS011;40884;53.562;9.940;2022-10-26T03:59:05;12.83;;;10.60;;
54983;SDS011;40884;53.562;9.940;2022-10-26T04:00:05;13.20;;;9.77;;
54983;SDS011;40884;53.562;9.940;2022-10-26T04:01:11;17.23;;;10.43;;
54983;SDS011;40884;53.562;9.940;2022-10-26T04:02:12;13.30;;;9.00;;
54983;SDS011;40884;53.562;9.940;2022-10-26T04:03:12;11.93;;;9.37;;
54983;SDS011;40884;53.562;9.940;2022-10-26T04:04:12;13.40;;;9.57;;
54983;SDS011;40884;53.562;9.940;2022-10-26T04:05:12;14.07;;;9.80;;
54983;SDS011;40884;53.562;9.940;2022-10-26T04:06:12;15.13;;;10.33;;
54983;SDS011;40884;53.562;9.940;2022-10-26T04:07:12;14.73;;;9.67;;
54983;SDS011;40884;53.562;9.940;2022-10-26T04:08:13;12.13;;;9.40;;
54983;SDS011;40884;53.562;9.940;2022-10-26T04:09:13;13.60;;;9.03;;
54983;SDS011;40884;53.562;9.940;2022-10-26T04:10:13;13.67;;;9.10;;
54983;SDS011;40884;53.562;9.940;2022-10-26T04:11:13;13.77;;;9.53;;
54983;SDS011;40884;53.562;9.940;2022-10-26T04:12:13;15.50;;;9.43;;
54983;SDS011;40884;53.562;9.940;2022-10-26T04:13:13;15.80;;;10.53;;
54983;SDS011;40884;53.562;9.940;2022-10-26T04:14:13;13.30;;;9.47;;
54983;SDS011;40884;53.562;9.940;2022-10-26T04:15:14;12.97;;;9.60;;
54983;SDS011;40884;53.562;9.940;2022-10-26T04:16:14;17.10;;;10.70;;
54983;SDS011;40884;53.562;9.940;2022-10-26T04:17:14;12.83;;;9.60;;
54983;SDS011;40884;53.562;9.940;2022-10-26T04:18:14;14.33;;;9.87;;
54983;SDS011;40884;53.562;9.940;2022-10-26T04:19:15;13.10;;;9.83;;
54983;SDS011;40884;53.562;9.940;2022-10-26T04:20:15;12.83;;;9.90;;
54983;SDS011;40884;53.562;9.940;2022-10-26T04:21:15;13.30;;;9.77;;
54983;SDS011;40884;53.562;9.940;2022-10-26T04:22:16;12.40;;;9.60;;
54983;SDS011;40884;53.562;9.940;2022-10-26T04:23:16;14.33;;;10.03;;
54983;SDS011;40884;53.562;9.940;2022-10-26T04:24:17;14.47;;;10.70;;
54983;SDS011;40884;53.562;9.940;2022-10-26T04:25:17;16.73;;;9.60;;
54983;SDS011;40884;53.562;9.940;2022-10-26T04:26:17;13.47;;;10.70;;
54983;SDS011;40884;53.562;9.940;2022-10-26T04:27:17;15.27;;;10.40;;
54983;SDS011;40884;53.562;9.940;2022-10-26T04:28:18;13.80;;;10.20;;
54983;SDS011;40884;53.562;9.940;2022-10-26T04:29:18;16.60;;;10.40;;
54983;SDS011;40884;53.562;9.940;2022-10-26T04:30:18;14.60;;;10.50;;
54983;SDS011;40884;53.562;9.940;2022-10-26T04:31:18;16.37;;;11.00;;
54983;SDS011;40884;53.562;9.940;2022-10-26T04:32:18;13.17;;;9.90;;
54983;SDS011;40884;53.562;9.940;2022-10-26T04:33:18;18.23;;;11.20;;
54983;SDS011;40884;53.562;9.940;2022-10-26T04:34:19;14.73;;;10.13;;
54983;SDS011;40884;53.562;9.940;2022-10-26T04:35:19;14.53;;;10.70;;
54983;SDS011;40884;53.562;9.940;2022-10-26T04:36:19;14.83;;;11.57;;
54983;SDS011;40884;53.562;9.940;2022-10-26T04:37:19;14.13;;;10.60;;
54983;SDS011;40884;53.562;9.940;2022-10-26T04:38:19;15.70;;;11.13;;
54983;SDS011;40884;53.562;9.940;2022-10-26T04:39:19;15.20;;;11.77;;
54983;SDS011;40884;53.562;9.940;2022-10-26T04:40:19;18.07;;;11.50;;
54983;SDS011;40884;53.562;9.940;2022-10-26T04:41:19;15.73;;;11.13;;
54983;SDS011;40884;53.562;9.940;2022-10-26T04:42:19;15.73;;;10.80;;
54983;SDS011;40884;53.562;9.940;2022-10-26T04:43:20;16.57;;;11.83;;
54983;SDS011;40884;53.562;9.940;2022-10-26T04:44:20;13.43;;;10.63;;
54983;SDS011;40884;53.562;9.940;2022-10-26T04:45:20;15.00;;;10.77;;
54983;SDS011;40884;53.562;9.940;2022-10-26T04:46:20;15.20;;;11.23;;
54983;SDS011;40884;53.562;9.940;2022-10-26T04:47:20;13.80;;;10.93;;
54983;SDS011;40884;53.562;9.940;2022-10-26T04:48:20;13.07;;;10.73;;
54983;SDS011;40884;53.562;9.940;2022-10-26T04:49:20;13.60;;;10.87;;
54983;SDS011;40884;53.562;9.940;2022-10-26T04:50:21;15.00;;;11.10;;
54983;SDS011;40884;53.562;9.940;2022-10-26T04:51:21;18.17;;;11.53;;
54983;SDS011;40884;53.562;9.940;2022-10-26T04:52:21;16.50;;;11.23;;
54983;SDS011;40884;53.562;9.940;2022-10-26T04:53:21;14.20;;;11.13;;
54983;SDS011;40884;53.562;9.940;2022-10-26T04:54:21;15.53;;;11.53;;
54983;SDS011;40884;53.562;9.940;2022-10-26T04:55:21;16.53;;;10.83;;
54983;SDS011;40884;53.562;9.940;2022-10-26T04:56:21;17.70;;;11.10;;
54983;SDS011;40884;53.562;9.940;2022-10-26T04:57:21;18.70;;;11.50;;
54983;SDS011;40884;53.562;9.940;2022-10-26T04:58:22;15.50;;;10.93;;
54983;SDS011;40884;53.562;9.940;2022-10-26T04:59:22;14.03;;;10.73;;
54983;SDS011;40884;53.562;9.940;2022-10-26T05:00:22;15.37;;;12.00;;
54983;SDS011;40884;53.562;9.940;2022-10-26T05:01:22;16.50;;;12.13;;
54983;SDS011;40884;53.562;9.940;2022-10-26T05:02:22;15.60;;;12.10;;
54983;SDS011;40884;53.562;9.940;2022-10-26T05:03:23;21.33;;;12.53;;
54983;SDS011;40884;53.562;9.940;2022-10-26T05:04:23;16.97;;;11.60;;
54983;SDS011;40884;53.562;9.940;2022-10-26T05:05:23;16.50;;;13.20;;
54983;SDS011;40884;53.562;9.940;2022-10-26T05:06:23;16.63;;;12.00;;
54983;SDS011;40884;53.562;9.940;2022-10-26T05:07:24;18.43;;;11.63;;
54983;SDS011;40884;53.562;9.940;2022-10-26T05:08:24;17.70;;;12.37;;
54983;SDS011;40884;53.562;9.940;2022-10-26T05:09:25;19.70;;;13.37;;
54983;SDS011;40884;53.562;9.940;2022-10-26T05:10:26;16.97;;;12.77;;
54983;SDS011;40884;53.562;9.940;2022-10-26T05:11:26;17.83;;;13.10;;
54983;SDS011;40884;53.562;9.940;2022-10-26T05:12:26;17.40;;;12.57;;
54983;SDS011;40884;53.562;9.940;2022-10-26T05:13:26;17.93;;;12.43;;
54983;SDS011;40884;53.562;9.940;2022-10-26T05:14:26;18.57;;;12.87;;
54983;SDS011;40884;53.562;9.940;2022-10-26T05:15:26;16.73;;;11.83;;
54983;SDS011;40884;53.562;9.940;2022-10-26T05:16:27;16.07;;;12.50;;
54983;SDS011;40884;53.562;9.940;2022-10-26T05:17:27;16.40;;;12.83;;
54983;SDS011;40884;53.562;9.940;2022-10-26T05:18:27;15.70;;;12.77;;
54983;SDS011;40884;53.562;9.940;2022-10-26T05:19:27;15.13;;;12.83;;
54983;SDS011;40884;53.562;9.940;2022-10-26T05:20:28;18.07;;;13.13;;
54983;SDS011;40884;53.562;9.940;2022-10-26T05:21:29;17.17;;;13.50;;
54983;SDS011;40884;53.562;9.940;2022-10-26T05:22:29;17.80;;;11.77;;
54983;SDS011;40884;53.562;9.940;2022-10-26T05:23:29;15.77;;;11.87;;
54983;SDS011;40884;53.562;9.940;2022-10-26T05:24:29;19.50;;;12.77;;
54983;SDS011;40884;53.562;9.940;2022-10-26T05:25:30;15.73;;;11.93;;
54983;SDS011;40884;53.562;9.940;2022-10-26T05:26:31;16.47;;;12.13;;
54983;SDS011;40884;53.562;9.940;2022-10-26T05:27:31;15.23;;;11.87;;
54983;SDS011;40884;53.562;9.940;2022-10-26T05:28:31;17.30;;;12.70;;
54983;SDS011;40884;53.562;9.940;2022-10-26T05:29:31;16.83;;;12.50;;
54983;SDS011;40884;53.562;9.940;2022-10-26T05:30:31;18.87;;;12.43;;
54983;SDS011;40884;53.562;9.940;2022-10-26T05:31:31;16.80;;;11.90;;
54983;SDS011;40884;53.562;9.940;2022-10-26T05:32:31;15.70;;;12.00;;
54983;SDS011;40884;53.562;9.940;2022-10-26T05:33:32;17.37;;;12.90;;
54983;SDS011;40884;53.562;9.940;2022-10-26T05:34:32;19.10;;;12.90;;
54983;SDS011;40884;53.562;9.940;2022-10-26T05:35:32;17.00;;;13.07;;
54983;SDS011;40884;53.562;9.940;2022-10-26T05:36:32;17.97;;;13.13;;
54983;SDS011;40884;53.562;9.940;2022-10-26T05:37:32;18.63;;;13.33;;
54983;SDS011;40884;53.562;9.940;2022-10-26T05:38:32;17.63;;;13.00;;
54983;SDS011;40884;53.562;9.940;2022-10-26T05:39:32;21.47;;;14.30;;
54983;SDS011;40884;53.562;9.940;2022-10-26T05:40:32;20.53;;;14.60;;
54983;SDS011;40884;53.562;9.940;2022-10-26T05:41:33;19.93;;;14.60;;
54983;SDS011;40884;53.562;9.940;2022-10-26T05:42:33;22.63;;;15.23;;
54983;SDS011;40884;53.562;9.940;2022-10-26T05:43:33;24.13;;;15.27;;
54983;SDS011;40884;53.562;9.940;2022-10-26T05:44:33;24.30;;;16.20;;
54983;SDS011;40884;53.562;9.940;2022-10-26T05:45:33;26.47;;;16.87;;
54983;SDS011;40884;53.562;9.940;2022-10-26T05:46:33;24.30;;;16.47;;
54983;SDS011;40884;53.562;9.940;2022-10-26T05:47:40;24.23;;;16.47;;
54983;SDS011;40884;53.562;9.940;2022-10-26T05:48:40;25.83;;;17.93;;
54983;SDS011;40884;53.562;9.940;2022-10-26T05:49:40;27.47;;;18.10;;
54983;SDS011;40884;53.562;9.940;2022-10-26T05:50:40;31.27;;;18.50;;
54983;SDS011;40884;53.562;9.940;2022-10-26T05:51:41;27.87;;;16.73;;
54983;SDS011;40884;53.562;9.940;2022-10-26T05:52:41;28.03;;;18.10;;
54983;SDS011;40884;53.562;9.940;2022-10-26T05:53:42;29.47;;;18.93;;
54983;SDS011;40884;53.562;9.940;2022-10-26T05:54:42;33.37;;;19.67;;
54983;SDS011;40884;53.562;9.940;2022-10-26T05:55:42;29.57;;;18.50;;
54983;SDS011;40884;53.562;9.940;2022-10-26T05:56:42;29.57;;;18.57;;
54983;SDS011;40884;53.562;9.940;2022-10-26T05:57:43;25.00;;;18.00;;
54983;SDS011;40884;53.562;9.940;2022-10-26T05:58:43;30.00;;;19.43;;
54983;SDS011;40884;53.562;9.940;2022-10-26T05:59:43;33.37;;;18.57;;
54983;SDS011;40884;53.562;9.940;2022-10-26T06:02:08;32.73;;;18.93;;
54983;SDS011;40884;53.562;9.940;2022-10-26T06:03:15;36.50;;;19.93;;
54983;SDS011;40884;53.562;9.940;2022-10-26T06:05:23;33.27;;;20.33;;
54983;SDS011;40884;53.562;9.940;2022-10-26T06:06:24;35.77;;;21.47;;
54983;SDS011;40884;53.562;9.940;2022-10-26T06:07:26;33.23;;;20.67;;
54983;SDS011;40884;53.562;9.940;2022-10-26T06:08:26;36.20;;;20.87;;
54983;SDS011;40884;53.562;9.940;2022-10-26T06:09:27;33.53;;;19.70;;
54983;SDS011;40884;53.562;9.940;2022-10-26T06:10:27;34.27;;;20.97;;
54983;SDS011;40884;53.562;9.940;2022-10-26T06:11:27;31.77;;;19.43;;
54983;SDS011;40884;53.562;9.940;2022-10-26T06:12:27;39.97;;;21.67;;
54983;SDS011;40884;53.562;9.940;2022-10-26T06:13:28;36.67;;;21.03;;
54983;SDS011;40884;53.562;9.940;2022-10-26T06:14:28;38.00;;;21.30;;
54983;SDS011;40884;53.562;9.940;2022-10-26T06:15:28;42.97;;;23.23;;
54983;SDS011;40884;53.562;9.940;2022-10-26T06:16:32;40.57;;;21.70;;
54983;SDS011;40884;53.562;9.940;2022-10-26T06:17:42;39.30;;;21.70;;
54983;SDS011;40884;53.562;9.940;2022-10-26T06:19:58;38.97;;;21.93;;
54983;SDS011;40884;53.562;9.940;2022-10-26T06:21:07;41.27;;;22.93;;
54983;SDS011;40884;53.562;9.940;2022-10-26T06:22:18;37.13;;;21.63;;
54983;SDS011;40884;53.562;9.940;2022-10-26T06:25:44;39.37;;;22.37;;
54983;SDS011;40884;53.562;9.940;2022-10-26T06:27:51;38.00;;;22.33;;
54983;SDS011;40884;53.562;9.940;2022-10-26T06:29:13;37.70;;;22.57;;
54983;SDS011;40884;53.562;9.940;2022-10-26T06:30:15;40.43;;;22.27;;
54983;SDS011;40884;53.562;9.940;2022-10-26T06:31:15;40.33;;;23.20;;
54983;SDS011;40884;53.562;9.940;2022-10-26T06:32:16;45.10;;;24.83;;
54983;SDS011;40884;53.562;9.940;2022-10-26T06:33:16;40.00;;;23.40;;
54983;SDS011;40884;53.562;9.940;2022-10-26T06:34:20;40.00;;;22.93;;